CheckWX is a tool to help pilots better visualize weather data.  It is not intended as a substitute for an official pre-flight weather briefing.

13:08:56 UTC

KTPL METAR
Draughon-Miller Central Texas Regional Airport
Temple, Texas, USA
Current

18 mins ago

KTPL 221251Z AUTO 08006KT 1/4SM -RA FG OVC002 08/08 A2993 RMK AO2 SLP153 P0000 T00830083 RVRNO
Observed
Feb-22 @ 12:51 UTC
Wind
  • 080° at 6 KTS
Visibility
1/4 SM
Flight Rules
LIFR
Conditions
Light Rain, Fog
Cloud Levels
  • Overcast at 200' AGL
Temperature
C / 46°F
Dewpoint
C / 46°F
Humidity
100%
Altimeter
29.93" Hg
Pressure
1015.3 hPa
Current Rain
0.01"
Previous

1 hour ago

KTPL 221201Z AUTO 08004KT 1/4SM -RA FG OVC002 08/08 A2993 RMK AO2 P0000 RVRNO
Observed
Feb-22 @ 12:01 UTC
Wind
  • 080° at 4 KTS
Visibility
1/4 SM
Flight Rules
LIFR
Conditions
Light Rain, Fog
Cloud Levels
  • Overcast at 200' AGL
Temperature
C / 46°F
Dewpoint
C / 46°F
Humidity
100%
Altimeter
29.93" Hg
Pressure
1013.52 hPa
Current Rain
0.01"
Previous

1 hour ago

KTPL 221151Z AUTO 08005KT 1/2SM -RA FG OVC002 08/08 A2994 RMK AO2 RAB11 SLP157 P0000 60000 T00830083 10089 20083 58009 RVRNO
Observed
Feb-22 @ 11:51 UTC
Wind
  • 080° at 5 KTS
Visibility
1/2 SM
Flight Rules
LIFR
Conditions
Light Rain, Fog
Cloud Levels
  • Overcast at 200' AGL
Temperature
C / 46°F
Dewpoint
C / 46°F
Humidity
100%
Altimeter
29.94" Hg
Pressure
1015.7 hPa
Current Rain
0.01"